Airport View

Enter AWOS ICAO identifier for current METAR.

ex. KFNL

PACD 262153Z 00000KT 10SM OVC003 M01/M02 A2956 RMK AO2 SLP011 T10111022

26 Feb 2020 22:09

Frequency: 135.75

Phone: 907-532-2639

Other Area AWOS: PAVC - PAKF - PAOU - PASD

TAF AMD PACD 262059Z 2621/2718 VRB04KT P6SM VCFG SCT002 OVC007 TEMPO 2621/2623 1/2SM FZFG VV002 FM270000 15003KT P6SM SCT007 OVC015 FM270900 14005KT P6SM OVC015 TEMPO 2709/2713 OVC025